sensor_id;sensor_type;location;lat;lon;timestamp;pressure;altitude;pressure_sealevel;temperature;humidity
41636;BME280;27623;51.966;4.602;2023-06-22T00:02:12;65497.38;;;20.87;92.37
41636;BME280;27623;51.966;4.602;2023-06-22T00:04:37;65514.78;;;20.84;92.70
41636;BME280;27623;51.966;4.602;2023-06-22T00:07:03;65502.00;;;20.87;93.39
41636;BME280;27623;51.966;4.602;2023-06-22T00:09:28;65518.09;;;20.87;92.54
41636;BME280;27623;51.966;4.602;2023-06-22T00:11:56;65494.81;;;20.80;92.87
41636;BME280;27623;51.966;4.602;2023-06-22T00:14:21;65500.81;;;20.76;92.62
41636;BME280;27623;51.966;4.602;2023-06-22T00:16:46;65497.34;;;20.71;93.37
41636;BME280;27623;51.966;4.602;2023-06-22T00:19:14;65502.84;;;20.76;93.05
41636;BME280;27623;51.966;4.602;2023-06-22T00:21:40;65471.66;;;20.66;93.84
41636;BME280;27623;51.966;4.602;2023-06-22T00:24:05;65469.63;;;20.67;93.64
41636;BME280;27623;51.966;4.602;2023-06-22T00:26:31;65481.13;;;20.61;94.36
41636;BME280;27623;51.966;4.602;2023-06-22T00:28:56;65498.41;;;20.55;95.15
41636;BME280;27623;51.966;4.602;2023-06-22T00:31:22;65430.91;;;20.52;95.27
41636;BME280;27623;51.966;4.602;2023-06-22T00:33:47;65463.09;;;20.53;95.01
41636;BME280;27623;51.966;4.602;2023-06-22T00:36:12;65455.41;;;20.63;94.97
41636;BME280;27623;51.966;4.602;2023-06-22T00:38:41;65492.44;;;20.59;94.67
41636;BME280;27623;51.966;4.602;2023-06-22T00:41:07;65470.84;;;20.53;95.16
41636;BME280;27623;51.966;4.602;2023-06-22T00:43:32;65461.75;;;20.57;94.49
41636;BME280;27623;51.966;4.602;2023-06-22T00:45:58;65452.16;;;20.53;94.79
41636;BME280;27623;51.966;4.602;2023-06-22T00:48:23;65484.91;;;20.54;94.53
41636;BME280;27623;51.966;4.602;2023-06-22T00:50:49;65437.31;;;20.39;95.14
41636;BME280;27623;51.966;4.602;2023-06-22T00:53:16;65413.44;;;20.39;95.75
41636;BME280;27623;51.966;4.602;2023-06-22T00:55:44;65461.66;;;20.47;95.26
41636;BME280;27623;51.966;4.602;2023-06-22T00:58:13;65462.59;;;20.46;94.68
41636;BME280;27623;51.966;4.602;2023-06-22T01:00:40;65427.50;;;20.40;95.00
41636;BME280;27623;51.966;4.602;2023-06-22T01:03:07;65421.06;;;20.36;95.02
41636;BME280;27623;51.966;4.602;2023-06-22T01:05:36;65443.19;;;20.42;94.75
41636;BME280;27623;51.966;4.602;2023-06-22T01:11:03;65445.69;;;20.33;95.56
41636;BME280;27623;51.966;4.602;2023-06-22T01:13:41;65425.50;;;20.33;95.56
41636;BME280;27623;51.966;4.602;2023-06-22T01:16:16;65442.03;;;20.24;96.07
41636;BME280;27623;51.966;4.602;2023-06-22T01:18:43;65417.66;;;20.23;95.91
41636;BME280;27623;51.966;4.602;2023-06-22T01:21:14;65415.66;;;20.17;96.76
41636;BME280;27623;51.966;4.602;2023-06-22T01:23:51;65440.72;;;20.28;96.16
41636;BME280;27623;51.966;4.602;2023-06-22T01:26:32;65428.66;;;20.34;95.08
41636;BME280;27623;51.966;4.602;2023-06-22T01:29:00;65465.88;;;20.25;95.98
41636;BME280;27623;51.966;4.602;2023-06-22T01:31:29;65403.13;;;20.15;96.36
41636;BME280;27623;51.966;4.602;2023-06-22T01:34:03;65415.66;;;20.17;96.70
41636;BME280;27623;51.966;4.602;2023-06-22T01:36:31;65418.88;;;20.10;96.74
41636;BME280;27623;51.966;4.602;2023-06-22T01:38:57;65447.50;;;20.13;96.64
41636;BME280;27623;51.966;4.602;2023-06-22T01:41:28;65372.50;;;19.89;98.01
41636;BME280;27623;51.966;4.602;2023-06-22T01:43:55;65401.81;;;19.95;98.88
41636;BME280;27623;51.966;4.602;2023-06-22T01:46:22;65366.69;;;19.96;98.81
41636;BME280;27623;51.966;4.602;2023-06-22T01:48:48;65378.53;;;19.95;98.70
41636;BME280;27623;51.966;4.602;2023-06-22T01:51:14;65389.59;;;19.98;98.71
41636;BME280;27623;51.966;4.602;2023-06-22T01:53:40;65396.97;;;20.00;98.03
41636;BME280;27623;51.966;4.602;2023-06-22T01:56:06;65382.22;;;19.96;98.38
41636;BME280;27623;51.966;4.602;2023-06-22T01:58:32;65390.94;;;19.94;98.53
41636;BME280;27623;51.966;4.602;2023-06-22T02:01:12;65325.97;;;19.82;99.20
41636;BME280;27623;51.966;4.602;2023-06-22T02:03:46;65384.53;;;19.83;99.12
41636;BME280;27623;51.966;4.602;2023-06-22T02:06:21;65362.66;;;19.73;99.63
41636;BME280;27623;51.966;4.602;2023-06-22T02:08:53;65390.50;;;19.79;99.64
41636;BME280;27623;51.966;4.602;2023-06-22T02:11:20;65353.25;;;19.71;99.96
41636;BME280;27623;51.966;4.602;2023-06-22T02:13:47;65332.22;;;19.66;100.00
41636;BME280;27623;51.966;4.602;2023-06-22T02:16:13;65371.81;;;19.79;99.61
41636;BME280;27623;51.966;4.602;2023-06-22T02:18:46;65403.03;;;19.81;99.20
41636;BME280;27623;51.966;4.602;2023-06-22T02:21:11;65375.53;;;19.80;99.38
41636;BME280;27623;51.966;4.602;2023-06-22T02:23:36;65374.31;;;19.69;100.00
41636;BME280;27623;51.966;4.602;2023-06-22T02:26:02;65380.59;;;19.70;100.00
41636;BME280;27623;51.966;4.602;2023-06-22T02:28:28;65349.41;;;19.68;100.00
41636;BME280;27623;51.966;4.602;2023-06-22T02:30:53;65347.75;;;19.66;100.00
41636;BME280;27623;51.966;4.602;2023-06-22T02:33:19;65371.66;;;19.76;100.00
41636;BME280;27623;51.966;4.602;2023-06-22T02:35:44;65355.03;;;19.75;99.84
41636;BME280;27623;51.966;4.602;2023-06-22T02:38:13;65373.00;;;19.73;99.72
41636;BME280;27623;51.966;4.602;2023-06-22T02:40:39;65352.41;;;19.59;100.00
41636;BME280;27623;51.966;4.602;2023-06-22T02:43:05;65362.38;;;19.61;100.00
41636;BME280;27623;51.966;4.602;2023-06-22T02:45:30;65332.06;;;19.64;100.00
41636;BME280;27623;51.966;4.602;2023-06-22T02:47:55;65366.06;;;19.62;100.00
41636;BME280;27623;51.966;4.602;2023-06-22T02:50:21;65335.63;;;19.55;100.00
41636;BME280;27623;51.966;4.602;2023-06-22T02:52:46;65331.28;;;19.44;100.00
41636;BME280;27623;51.966;4.602;2023-06-22T02:55:12;65316.31;;;19.51;100.00
41636;BME280;27623;51.966;4.602;2023-06-22T02:57:37;65356.00;;;19.50;100.00
41636;BME280;27623;51.966;4.602;2023-06-22T03:00:05;65341.53;;;19.58;100.00
41636;BME280;27623;51.966;4.602;2023-06-22T03:02:42;65341.53;;;19.58;100.00
41636;BME280;27623;51.966;4.602;2023-06-22T03:05:07;65326.50;;;19.42;100.00
41636;BME280;27623;51.966;4.602;2023-06-22T03:07:42;65331.69;;;19.42;100.00
41636;BME280;27623;51.966;4.602;2023-06-22T03:10:09;65351.25;;;19.41;100.00
41636;BME280;27623;51.966;4.602;2023-06-22T03:12:35;65338.72;;;19.39;100.00
41636;BME280;27623;51.966;4.602;2023-06-22T03:15:02;65350.22;;;19.33;100.00
41636;BME280;27623;51.966;4.602;2023-06-22T03:17:28;65304.09;;;19.31;100.00
41636;BME280;27623;51.966;4.602;2023-06-22T03:19:53;65308.00;;;19.27;100.00
41636;BME280;27623;51.966;4.602;2023-06-22T03:22:19;65314.44;;;19.31;100.00
41636;BME280;27623;51.966;4.602;2023-06-22T03:24:44;65313.53;;;19.25;100.00
41636;BME280;27623;51.966;4.602;2023-06-22T03:27:10;65301.59;;;19.40;100.00
41636;BME280;27623;51.966;4.602;2023-06-22T03:29:35;65291.47;;;19.36;100.00
41636;BME280;27623;51.966;4.602;2023-06-22T03:32:01;65304.78;;;19.34;100.00
41636;BME280;27623;51.966;4.602;2023-06-22T03:34:26;65330.78;;;19.36;100.00
41636;BME280;27623;51.966;4.602;2023-06-22T03:36:51;65301.00;;;19.23;100.00
41636;BME280;27623;51.966;4.602;2023-06-22T03:39:17;65299.22;;;19.36;100.00
41636;BME280;27623;51.966;4.602;2023-06-22T03:41:42;65288.34;;;19.35;100.00
41636;BME280;27623;51.966;4.602;2023-06-22T03:44:08;65279.19;;;19.29;100.00
41636;BME280;27623;51.966;4.602;2023-06-22T03:46:39;65313.53;;;19.25;100.00
41636;BME280;27623;51.966;4.602;2023-06-22T03:49:05;65308.03;;;19.20;100.00
41636;BME280;27623;51.966;4.602;2023-06-22T03:51:30;65314.22;;;19.11;100.00
41636;BME280;27623;51.966;4.602;2023-06-22T03:53:56;65280.22;;;19.13;100.00
41636;BME280;27623;51.966;4.602;2023-06-22T03:56:21;65274.13;;;19.15;100.00
41636;BME280;27623;51.966;4.602;2023-06-22T03:58:47;65287.81;;;19.11;100.00
41636;BME280;27623;51.966;4.602;2023-06-22T04:01:12;65321.50;;;19.20;100.00
41636;BME280;27623;51.966;4.602;2023-06-22T04:03:38;65318.22;;;19.17;100.00
41636;BME280;27623;51.966;4.602;2023-06-22T04:06:03;65316.00;;;19.15;100.00
41636;BME280;27623;51.966;4.602;2023-06-22T04:08:29;65278.72;;;19.14;100.00
41636;BME280;27623;51.966;4.602;2023-06-22T04:10:55;65318.97;;;19.13;100.00
41636;BME280;27623;51.966;4.602;2023-06-22T04:13:20;65296.06;;;19.18;100.00
41636;BME280;27623;51.966;4.602;2023-06-22T04:15:45;65291.59;;;19.21;100.00
41636;BME280;27623;51.966;4.602;2023-06-22T04:18:11;65296.00;;;19.26;100.00
41636;BME280;27623;51.966;4.602;2023-06-22T04:20:36;65298.75;;;19.28;100.00
41636;BME280;27623;51.966;4.602;2023-06-22T04:23:02;65306.16;;;19.23;100.00
41636;BME280;27623;51.966;4.602;2023-06-22T04:25:27;65292.88;;;19.25;100.00
41636;BME280;27623;51.966;4.602;2023-06-22T04:27:53;65309.09;;;19.28;100.00
41636;BME280;27623;51.966;4.602;2023-06-22T04:30:18;65318.66;;;19.32;100.00
41636;BME280;27623;51.966;4.602;2023-06-22T04:32:44;65318.31;;;19.27;100.00
41636;BME280;27623;51.966;4.602;2023-06-22T04:35:10;65331.25;;;19.27;100.00
41636;BME280;27623;51.966;4.602;2023-06-22T04:37:36;65308.88;;;19.33;100.00
41636;BME280;27623;51.966;4.602;2023-06-22T04:40:01;65345.19;;;19.35;100.00
41636;BME280;27623;51.966;4.602;2023-06-22T04:42:29;65336.03;;;19.29;100.00
41636;BME280;27623;51.966;4.602;2023-06-22T04:44:55;65316.28;;;19.28;100.00
41636;BME280;27623;51.966;4.602;2023-06-22T04:47:20;65332.81;;;19.36;100.00
41636;BME280;27623;51.966;4.602;2023-06-22T04:49:46;65353.34;;;19.33;100.00
41636;BME280;27623;51.966;4.602;2023-06-22T04:52:13;65313.81;;;19.37;100.00
41636;BME280;27623;51.966;4.602;2023-06-22T04:54:40;65287.41;;;19.37;100.00
41636;BME280;27623;51.966;4.602;2023-06-22T04:57:12;65345.53;;;19.40;100.00
41636;BME280;27623;51.966;4.602;2023-06-22T04:59:38;65349.22;;;19.41;100.00
41636;BME280;27623;51.966;4.602;2023-06-22T05:02:09;65330.63;;;19.34;100.00
41636;BME280;27623;51.966;4.602;2023-06-22T05:04:35;65318.16;;;19.25;100.00
41636;BME280;27623;51.966;4.602;2023-06-22T05:07:04;65332.28;;;19.35;100.00
41636;BME280;27623;51.966;4.602;2023-06-22T05:09:30;65348.66;;;19.41;100.00
41636;BME280;27623;51.966;4.602;2023-06-22T05:11:55;65337.41;;;19.42;100.00
41636;BME280;27623;51.966;4.602;2023-06-22T05:14:25;65364.34;;;19.43;100.00
41636;BME280;27623;51.966;4.602;2023-06-22T05:16:51;65317.25;;;19.43;100.00
41636;BME280;27623;51.966;4.602;2023-06-22T05:19:17;65346.84;;;19.37;100.00
41636;BME280;27623;51.966;4.602;2023-06-22T05:21:42;65362.88;;;19.44;100.00
41636;BME280;27623;51.966;4.602;2023-06-22T05:24:08;65352.84;;;19.49;100.00
41636;BME280;27623;51.966;4.602;2023-06-22T05:26:34;65356.00;;;19.50;100.00
41636;BME280;27623;51.966;4.602;2023-06-22T05:29:01;65363.47;;;19.62;100.00
41636;BME280;27623;51.966;4.602;2023-06-22T05:31:28;65343.50;;;19.65;100.00
41636;BME280;27623;51.966;4.602;2023-06-22T05:33:54;65350.88;;;19.67;100.00
41636;BME280;27623;51.966;4.602;2023-06-22T05:36:20;65357.72;;;19.68;100.00
41636;BME280;27623;51.966;4.602;2023-06-22T05:38:47;65383.41;;;19.66;100.00
41636;BME280;27623;51.966;4.602;2023-06-22T05:41:14;65405.53;;;19.72;100.00
41636;BME280;27623;51.966;4.602;2023-06-22T05:43:40;65384.44;;;19.74;100.00
41636;BME280;27623;51.966;4.602;2023-06-22T05:46:05;65380.53;;;19.77;100.00
41636;BME280;27623;51.966;4.602;2023-06-22T05:48:31;65394.34;;;19.83;100.00
41636;BME280;27623;51.966;4.602;2023-06-22T05:50:56;65403.91;;;19.87;100.00
41636;BME280;27623;51.966;4.602;2023-06-22T05:53:22;65385.09;;;19.84;100.00
41636;BME280;27623;51.966;4.602;2023-06-22T05:55:49;65376.94;;;19.86;100.00
41636;BME280;27623;51.966;4.602;2023-06-22T05:58:15;65424.22;;;19.89;100.00
41636;BME280;27623;51.966;4.602;2023-06-22T06:00:41;65396.25;;;19.97;100.00
41636;BME280;27623;51.966;4.602;2023-06-22T06:03:07;65415.63;;;20.00;100.00
41636;BME280;27623;51.966;4.602;2023-06-22T06:05:33;65450.16;;;20.06;100.00
41636;BME280;27623;51.966;4.602;2023-06-22T06:08:04;65425.75;;;20.05;100.00
41636;BME280;27623;51.966;4.602;2023-06-22T06:10:33;65457.53;;;20.08;100.00
41636;BME280;27623;51.966;4.602;2023-06-22T06:13:01;65467.50;;;20.10;100.00
41636;BME280;27623;51.966;4.602;2023-06-22T06:15:28;65438.66;;;20.12;100.00
41636;BME280;27623;51.966;4.602;2023-06-22T06:17:53;65421.09;;;20.12;100.00
41636;BME280;27623;51.966;4.602;2023-06-22T06:20:20;65446.56;;;20.14;100.00
41636;BME280;27623;51.966;4.602;2023-06-22T06:22:49;65463.91;;;20.18;100.00
41636;BME280;27623;51.966;4.602;2023-06-22T06:25:15;65445.41;;;20.20;100.00
41636;BME280;27623;51.966;4.602;2023-06-22T06:27:48;65473.28;;;20.27;100.00
41636;BME280;27623;51.966;4.602;2023-06-22T06:30:15;65494.53;;;20.28;100.00
41636;BME280;27623;51.966;4.602;2023-06-22T06:32:42;65479.34;;;20.33;100.00
41636;BME280;27623;51.966;4.602;2023-06-22T06:35:11;65449.16;;;20.38;100.00
41636;BME280;27623;51.966;4.602;2023-06-22T06:37:39;65469.09;;;20.42;100.00
41636;BME280;27623;51.966;4.602;2023-06-22T06:40:08;65470.91;;;20.46;100.00
41636;BME280;27623;51.966;4.602;2023-06-22T06:42:46;65488.66;;;20.48;100.00
41636;BME280;27623;51.966;4.602;2023-06-22T06:45:22;65528.94;;;20.54;100.00
41636;BME280;27623;51.966;4.602;2023-06-22T06:47:48;65515.97;;;20.54;100.00
41636;BME280;27623;51.966;4.602;2023-06-22T06:50:15;65498.56;;;20.57;100.00
41636;BME280;27623;51.966;4.602;2023-06-22T06:52:43;65524.06;;;20.59;100.00
41636;BME280;27623;51.966;4.602;2023-06-22T06:55:09;65525.88;;;20.64;100.00
41636;BME280;27623;51.966;4.602;2023-06-22T06:57:37;65518.50;;;20.62;100.00
41636;BME280;27623;51.966;4.602;2023-06-22T07:00:12;65518.13;;;20.64;100.00
41636;BME280;27623;51.966;4.602;2023-06-22T07:02:43;65532.88;;;20.68;100.00
41636;BME280;27623;51.966;4.602;2023-06-22T07:05:12;65524.56;;;20.67;100.00
41636;BME280;27623;51.966;4.602;2023-06-22T07:07:38;65530.84;;;20.68;100.00
41636;BME280;27623;51.966;4.602;2023-06-22T07:10:07;65545.06;;;20.72;100.00
41636;BME280;27623;51.966;4.602;2023-06-22T07:12:32;65513.22;;;20.76;100.00
41636;BME280;27623;51.966;4.602;2023-06-22T07:15:06;65500.00;;;20.80;100.00
41636;BME280;27623;51.966;4.602;2023-06-22T07:17:33;65576.75;;;20.89;100.00
41636;BME280;27623;51.966;4.602;2023-06-22T07:19:59;65568.22;;;20.93;100.00
41636;BME280;27623;51.966;4.602;2023-06-22T07:22:27;65585.16;;;20.99;100.00
41636;BME280;27623;51.966;4.602;2023-06-22T07:24:52;65572.00;;;21.04;100.00
41636;BME280;27623;51.966;4.602;2023-06-22T07:27:18;65558.44;;;21.10;100.00
41636;BME280;27623;51.966;4.602;2023-06-22T07:29:45;65597.47;;;21.13;100.00
41636;BME280;27623;51.966;4.602;2023-06-22T07:32:13;65604.25;;;21.21;100.00
41636;BME280;27623;51.966;4.602;2023-06-22T07:34:38;65614.97;;;21.26;100.00
41636;BME280;27623;51.966;4.602;2023-06-22T07:37:04;65608.44;;;21.30;100.00
41636;BME280;27623;51.966;4.602;2023-06-22T07:39:30;65656.00;;;21.36;100.00
41636;BME280;27623;51.966;4.602;2023-06-22T07:41:55;65632.28;;;21.38;99.43
41636;BME280;27623;51.966;4.602;2023-06-22T07:44:21;65612.41;;;21.43;98.55
41636;BME280;27623;51.966;4.602;2023-06-22T07:46:46;65640.31;;;21.50;98.02
41636;BME280;27623;51.966;4.602;2023-06-22T07:49:12;65644.91;;;21.56;97.34
41636;BME280;27623;51.966;4.602;2023-06-22T07:51:37;65644.69;;;21.61;96.75
41636;BME280;27623;51.966;4.602;2023-06-22T07:54:02;65677.63;;;21.65;95.63
41636;BME280;27623;51.966;4.602;2023-06-22T07:56:28;65653.50;;;21.69;95.15
41636;BME280;27623;51.966;4.602;2023-06-22T07:58:53;65636.22;;;21.75;95.06
41636;BME280;27623;51.966;4.602;2023-06-22T08:01:19;65687.34;;;21.79;93.82
41636;BME280;27623;51.966;4.602;2023-06-22T08:03:49;65688.38;;;21.87;92.88
41636;BME280;27623;51.966;4.602;2023-06-22T08:06:17;65704.81;;;21.92;91.35
41636;BME280;27623;51.966;4.602;2023-06-22T08:08:43;65710.91;;;21.98;90.67
41636;BME280;27623;51.966;4.602;2023-06-22T08:11:09;65719.19;;;22.06;89.97
41636;BME280;27623;51.966;4.602;2023-06-22T08:13:35;65702.69;;;22.24;89.28
41636;BME280;27623;51.966;4.602;2023-06-22T08:16:00;65725.44;;;22.31;89.14
41636;BME280;27623;51.966;4.602;2023-06-22T08:18:26;65764.03;;;22.49;86.96
41636;BME280;27623;51.966;4.602;2023-06-22T08:20:53;65768.63;;;22.56;84.74
41636;BME280;27623;51.966;4.602;2023-06-22T08:23:19;65782.66;;;22.64;82.92
41636;BME280;27623;51.966;4.602;2023-06-22T08:25:46;65831.19;;;22.75;81.34
41636;BME280;27623;51.966;4.602;2023-06-22T08:28:13;65797.75;;;22.80;82.62
41636;BME280;27623;51.966;4.602;2023-06-22T08:30:38;65789.47;;;22.89;83.89
41636;BME280;27623;51.966;4.602;2023-06-22T08:33:04;65832.84;;;23.01;84.84
41636;BME280;27623;51.966;4.602;2023-06-22T08:35:30;65858.22;;;23.07;85.17
41636;BME280;27623;51.966;4.602;2023-06-22T08:37:55;65849.50;;;23.25;85.70
41636;BME280;27623;51.966;4.602;2023-06-22T08:40:22;65857.84;;;23.26;85.27
41636;BME280;27623;51.966;4.602;2023-06-22T08:42:48;65900.84;;;23.39;86.59
41636;BME280;27623;51.966;4.602;2023-06-22T08:45:14;65923.75;;;23.55;87.33
41636;BME280;27623;51.966;4.602;2023-06-22T08:47:40;65903.69;;;23.51;87.60
41636;BME280;27623;51.966;4.602;2023-06-22T08:50:12;65948.88;;;23.50;88.66
41636;BME280;27623;51.966;4.602;2023-06-22T08:52:39;65916.22;;;23.44;87.36
41636;BME280;27623;51.966;4.602;2023-06-22T08:55:07;65908.47;;;23.37;87.42
41636;BME280;27623;51.966;4.602;2023-06-22T08:57:32;65863.53;;;23.34;88.33
41636;BME280;27623;51.966;4.602;2023-06-22T08:59:58;65875.44;;;23.33;89.61
41636;BME280;27623;51.966;4.602;2023-06-22T09:02:27;65904.03;;;23.33;89.41
41636;BME280;27623;51.966;4.602;2023-06-22T09:04:57;65920.94;;;23.36;89.11
41636;BME280;27623;51.966;4.602;2023-06-22T09:07:23;65927.03;;;23.42;89.60
41636;BME280;27623;51.966;4.602;2023-06-22T09:09:50;65916.00;;;23.48;89.12
41636;BME280;27623;51.966;4.602;2023-06-22T09:12:16;65929.69;;;23.51;89.31
41636;BME280;27623;51.966;4.602;2023-06-22T09:14:41;65940.06;;;23.58;89.77
41636;BME280;27623;51.966;4.602;2023-06-22T09:17:07;65942.84;;;23.61;88.39
41636;BME280;27623;51.966;4.602;2023-06-22T09:19:32;65960.28;;;23.65;88.62
41636;BME280;27623;51.966;4.602;2023-06-22T09:21:58;65937.56;;;23.68;89.27
41636;BME280;27623;51.966;4.602;2023-06-22T09:24:23;65938.81;;;23.72;90.04
41636;BME280;27623;51.966;4.602;2023-06-22T09:26:49;65946.41;;;23.76;89.95
41636;BME280;27623;51.966;4.602;2023-06-22T09:29:15;65910.50;;;23.77;88.02
41636;BME280;27623;51.966;4.602;2023-06-22T09:31:40;65963.47;;;23.82;88.07
41636;BME280;27623;51.966;4.602;2023-06-22T09:34:06;65950.06;;;23.84;89.43
41636;BME280;27623;51.966;4.602;2023-06-22T09:36:31;65996.28;;;23.91;89.87
41636;BME280;27623;51.966;4.602;2023-06-22T09:38:57;66003.97;;;23.88;88.09
41636;BME280;27623;51.966;4.602;2023-06-22T09:41:24;65962.13;;;23.86;85.03
41636;BME280;27623;51.966;4.602;2023-06-22T09:43:49;65968.44;;;23.87;83.94
41636;BME280;27623;51.966;4.602;2023-06-22T09:46:15;65971.22;;;23.89;83.65
41636;BME280;27623;51.966;4.602;2023-06-22T09:48:40;65979.81;;;23.85;82.26
41636;BME280;27623;51.966;4.602;2023-06-22T09:51:06;65970.09;;;23.88;82.56
41636;BME280;27623;51.966;4.602;2023-06-22T09:53:31;65958.34;;;23.92;82.71
41636;BME280;27623;51.966;4.602;2023-06-22T09:55:57;65998.91;;;23.91;80.29
41636;BME280;27623;51.966;4.602;2023-06-22T09:58:23;65967.25;;;23.93;80.85
41636;BME280;27623;51.966;4.602;2023-06-22T10:00:48;66008.53;;;23.95;80.75
41636;BME280;27623;51.966;4.602;2023-06-22T10:03:13;65968.69;;;23.99;78.67
41636;BME280;27623;51.966;4.602;2023-06-22T10:05:39;65986.75;;;23.96;80.01
41636;BME280;27623;51.966;4.602;2023-06-22T10:08:06;65982.50;;;23.95;79.63
41636;BME280;27623;51.966;4.602;2023-06-22T10:10:35;65952.03;;;23.91;78.62
41636;BME280;27623;51.966;4.602;2023-06-22T10:13:08;65966.88;;;23.95;79.31
41636;BME280;27623;51.966;4.602;2023-06-22T10:15:35;65988.81;;;23.96;80.94
41636;BME280;27623;51.966;4.602;2023-06-22T10:18:00;65977.84;;;23.95;81.63
41636;BME280;27623;51.966;4.602;2023-06-22T10:20:25;65969.69;;;23.90;78.44
41636;BME280;27623;51.966;4.602;2023-06-22T10:22:51;65974.03;;;23.85;79.28
41636;BME280;27623;51.966;4.602;2023-06-22T10:25:17;65971.81;;;23.83;80.11
41636;BME280;27623;51.966;4.602;2023-06-22T10:27:42;65960.16;;;23.79;81.40
41636;BME280;27623;51.966;4.602;2023-06-22T10:30:12;65984.75;;;23.73;82.35
41636;BME280;27623;51.966;4.602;2023-06-22T10:32:38;65962.13;;;23.69;81.37
41636;BME280;27623;51.966;4.602;2023-06-22T10:35:04;65933.31;;;23.67;81.48
41636;BME280;27623;51.966;4.602;2023-06-22T10:37:30;65967.72;;;23.67;80.68
41636;BME280;27623;51.966;4.602;2023-06-22T10:39:55;65910.66;;;23.62;80.43
41636;BME280;27623;51.966;4.602;2023-06-22T10:42:20;65954.38;;;23.62;81.91
41636;BME280;27623;51.966;4.602;2023-06-22T10:44:46;65929.13;;;23.58;83.47
41636;BME280;27623;51.966;4.602;2023-06-22T10:47:11;65898.44;;;23.58;85.12
41636;BME280;27623;51.966;4.602;2023-06-22T10:49:38;65929.66;;;23.58;85.69
41636;BME280;27623;51.966;4.602;2023-06-22T10:52:05;65944.19;;;23.57;85.84
41636;BME280;27623;51.966;4.602;2023-06-22T10:54:32;65946.94;;;23.60;87.14
41636;BME280;27623;51.966;4.602;2023-06-22T10:56:59;65928.50;;;23.64;87.80
41636;BME280;27623;51.966;4.602;2023-06-22T10:59:24;65942.78;;;23.68;87.67
41636;BME280;27623;51.966;4.602;2023-06-22T11:01:51;65932.13;;;23.73;88.96
41636;BME280;27623;51.966;4.602;2023-06-22T11:04:16;65948.28;;;23.73;90.17
41636;BME280;27623;51.966;4.602;2023-06-22T11:06:43;65946.63;;;23.72;90.08
41636;BME280;27623;51.966;4.602;2023-06-22T11:09:08;65934.00;;;23.70;90.10
41636;BME280;27623;51.966;4.602;2023-06-22T11:11:33;65909.09;;;23.71;90.54
41636;BME280;27623;51.966;4.602;2023-06-22T11:13:59;65946.09;;;23.71;91.23
41636;BME280;27623;51.966;4.602;2023-06-22T11:16:24;65982.53;;;23.71;92.19
41636;BME280;27623;51.966;4.602;2023-06-22T11:18:52;65974.31;;;23.73;92.40
41636;BME280;27623;51.966;4.602;2023-06-22T11:21:20;65959.81;;;23.74;91.21
41636;BME280;27623;51.966;4.602;2023-06-22T11:23:45;65951.84;;;23.72;91.10
41636;BME280;27623;51.966;4.602;2023-06-22T11:26:11;65939.22;;;23.70;91.99
41636;BME280;27623;51.966;4.602;2023-06-22T11:28:36;65943.72;;;23.67;91.30
41636;BME280;27623;51.966;4.602;2023-06-22T11:31:02;65959.19;;;23.64;91.58
41636;BME280;27623;51.966;4.602;2023-06-22T11:33:27;65892.84;;;23.60;92.75
41636;BME280;27623;51.966;4.602;2023-06-22T11:35:53;65957.53;;;23.62;92.86
41636;BME280;27623;51.966;4.602;2023-06-22T11:38:18;65954.75;;;23.60;93.35
41636;BME280;27623;51.966;4.602;2023-06-22T11:40:43;65930.78;;;23.59;93.34
41636;BME280;27623;51.966;4.602;2023-06-22T11:43:09;65925.25;;;23.54;93.76
41636;BME280;27623;51.966;4.602;2023-06-22T11:45:34;65938.25;;;23.54;94.11
41636;BME280;27623;51.966;4.602;2023-06-22T11:47:59;65962.06;;;23.52;94.75
41636;BME280;27623;51.966;4.602;2023-06-22T11:50:25;65913.41;;;23.48;94.95
41636;BME280;27623;51.966;4.602;2023-06-22T11:52:50;65932.69;;;23.49;94.84
41636;BME280;27623;51.966;4.602;2023-06-22T11:55:18;65895.19;;;23.48;94.47
41636;BME280;27623;51.966;4.602;2023-06-22T11:57:54;65922.13;;;23.47;93.46
41636;BME280;27623;51.966;4.602;2023-06-22T12:00:21;65922.69;;;23.47;93.08
41636;BME280;27623;51.966;4.602;2023-06-22T12:02:51;65904.63;;;23.50;92.93
41636;BME280;27623;51.966;4.602;2023-06-22T12:05:20;65927.50;;;23.49;92.76
41636;BME280;27623;51.966;4.602;2023-06-22T12:07:46;65887.91;;;23.49;92.75
41636;BME280;27623;51.966;4.602;2023-06-22T12:10:11;65941.06;;;23.50;92.97
41636;BME280;27623;51.966;4.602;2023-06-22T12:12:37;65935.84;;;23.50;93.60
41636;BME280;27623;51.966;4.602;2023-06-22T12:15:03;65899.81;;;23.48;94.74
41636;BME280;27623;51.966;4.602;2023-06-22T12:17:29;65954.06;;;23.50;94.32
41636;BME280;27623;51.966;4.602;2023-06-22T12:19:55;65932.16;;;23.49;95.43
41636;BME280;27623;51.966;4.602;2023-06-22T12:22:21;65912.44;;;23.50;96.57
41636;BME280;27623;51.966;4.602;2023-06-22T12:24:46;65934.75;;;23.49;97.40
41636;BME280;27623;51.966;4.602;2023-06-22T12:27:11;66076.94;;;23.50;97.73
41636;BME280;27623;51.966;4.602;2023-06-22T12:29:37;65964.66;;;23.52;98.18
41636;BME280;27623;51.966;4.602;2023-06-22T12:32:03;65954.63;;;23.50;98.63
41636;BME280;27623;51.966;4.602;2023-06-22T12:34:28;65950.53;;;23.51;98.70
41636;BME280;27623;51.966;4.602;2023-06-22T12:36:53;65927.09;;;23.51;98.39
41636;BME280;27623;51.966;4.602;2023-06-22T12:39:20;65938.31;;;23.47;99.27
41636;BME280;27623;51.966;4.602;2023-06-22T12:41:45;65934.59;;;23.46;98.95
41636;BME280;27623;51.966;4.602;2023-06-22T12:44:10;65902.28;;;23.45;99.79
41636;BME280;27623;51.966;4.602;2023-06-22T12:46:36;65902.66;;;23.43;99.75
41636;BME280;27623;51.966;4.602;2023-06-22T12:49:04;65865.28;;;23.45;100.00
41636;BME280;27623;51.966;4.602;2023-06-22T12:51:29;65936.72;;;23.39;100.00
41636;BME280;27623;51.966;4.602;2023-06-22T12:53:55;65922.75;;;23.40;100.00
41636;BME280;27623;51.966;4.602;2023-06-22T12:56:20;65932.44;;;23.37;100.00